METAR Data
IDs: Format: Raw Decoded Include TAF

Data at: 0236 UTC 25 Jan 2020

METAR for:KCNC (Chariton Muni, IA, US)
Text:KCNC 250215Z AUTO 31012KT 4SM -SN OVC010 M01/M01 A2996 RMK AO2
Temperature: -1.0°C ( 30°F)
Dewpoint: -1.0°C ( 30°F) [RH = 100%]
Pressure (altimeter):29.96 inches Hg (1014.6 mb)
Winds:from the NW (310 degrees) at 14 MPH (12 knots; 6.2 m/s)
Visibility: 4 sm ( 6 km)
Ceiling:1000 feet AGL
Clouds: overcast cloud deck at 1000 feet AGL
Weather:-SN (light snow)
QC Flag:automated observation with no human augmentation